sensor_id;sensor_type;location;lat;lon;timestamp;P1;durP1;ratioP1;P2;durP2;ratioP2
43150;SDS011;28755;51.478;5.702;2023-04-07T00:01:19;84.90;;;36.90;;
43150;SDS011;28755;51.478;5.702;2023-04-07T00:03:45;86.32;;;36.33;;
43150;SDS011;28755;51.478;5.702;2023-04-07T00:06:11;74.50;;;35.03;;
43150;SDS011;28755;51.478;5.702;2023-04-07T00:08:37;71.68;;;34.60;;
43150;SDS011;28755;51.478;5.702;2023-04-07T00:11:03;70.68;;;33.65;;
43150;SDS011;28755;51.478;5.702;2023-04-07T00:13:29;71.53;;;34.88;;
43150;SDS011;28755;51.478;5.702;2023-04-07T00:15:55;74.57;;;34.90;;
43150;SDS011;28755;51.478;5.702;2023-04-07T00:18:20;68.63;;;32.85;;
43150;SDS011;28755;51.478;5.702;2023-04-07T00:20:46;72.03;;;33.92;;
43150;SDS011;28755;51.478;5.702;2023-04-07T00:23:12;71.60;;;33.38;;
43150;SDS011;28755;51.478;5.702;2023-04-07T00:25:37;64.25;;;32.63;;
43150;SDS011;28755;51.478;5.702;2023-04-07T00:28:03;60.97;;;31.98;;
43150;SDS011;28755;51.478;5.702;2023-04-07T00:30:28;57.10;;;29.52;;
43150;SDS011;28755;51.478;5.702;2023-04-07T00:32:54;58.47;;;31.20;;
43150;SDS011;28755;51.478;5.702;2023-04-07T00:35:19;55.22;;;29.92;;
43150;SDS011;28755;51.478;5.702;2023-04-07T00:37:45;54.58;;;27.70;;
43150;SDS011;28755;51.478;5.702;2023-04-07T00:40:11;48.72;;;27.45;;
43150;SDS011;28755;51.478;5.702;2023-04-07T00:42:36;43.85;;;25.52;;
43150;SDS011;28755;51.478;5.702;2023-04-07T00:45:02;46.00;;;25.52;;
43150;SDS011;28755;51.478;5.702;2023-04-07T00:47:28;45.20;;;25.83;;
43150;SDS011;28755;51.478;5.702;2023-04-07T00:49:53;40.92;;;23.73;;
43150;SDS011;28755;51.478;5.702;2023-04-07T00:52:19;42.03;;;24.20;;
43150;SDS011;28755;51.478;5.702;2023-04-07T00:54:52;41.97;;;23.55;;
43150;SDS011;28755;51.478;5.702;2023-04-07T00:57:19;35.65;;;22.02;;
43150;SDS011;28755;51.478;5.702;2023-04-07T00:59:45;37.17;;;22.58;;
43150;SDS011;28755;51.478;5.702;2023-04-07T01:04:59;41.53;;;24.85;;
43150;SDS011;28755;51.478;5.702;2023-04-07T01:10:45;47.33;;;25.15;;
43150;SDS011;28755;51.478;5.702;2023-04-07T01:13:22;47.13;;;26.27;;
43150;SDS011;28755;51.478;5.702;2023-04-07T01:15:52;49.72;;;27.83;;
43150;SDS011;28755;51.478;5.702;2023-04-07T01:18:22;49.72;;;28.33;;
43150;SDS011;28755;51.478;5.702;2023-04-07T01:20:54;44.55;;;28.10;;
43150;SDS011;28755;51.478;5.702;2023-04-07T01:26:31;43.40;;;27.25;;
43150;SDS011;28755;51.478;5.702;2023-04-07T01:31:49;37.35;;;23.95;;
43150;SDS011;28755;51.478;5.702;2023-04-07T01:34:18;44.28;;;24.50;;
43150;SDS011;28755;51.478;5.702;2023-04-07T01:36:45;33.80;;;22.35;;
43150;SDS011;28755;51.478;5.702;2023-04-07T01:39:12;31.15;;;21.00;;
43150;SDS011;28755;51.478;5.702;2023-04-07T01:41:38;34.95;;;20.63;;
43150;SDS011;28755;51.478;5.702;2023-04-07T01:44:05;35.67;;;19.80;;
43150;SDS011;28755;51.478;5.702;2023-04-07T01:46:31;31.52;;;18.83;;
43150;SDS011;28755;51.478;5.702;2023-04-07T01:48:58;31.42;;;18.20;;
43150;SDS011;28755;51.478;5.702;2023-04-07T01:51:24;32.72;;;18.55;;
43150;SDS011;28755;51.478;5.702;2023-04-07T01:53:52;30.48;;;18.02;;
43150;SDS011;28755;51.478;5.702;2023-04-07T01:56:18;35.03;;;19.75;;
43150;SDS011;28755;51.478;5.702;2023-04-07T01:58:44;32.40;;;18.17;;
43150;SDS011;28755;51.478;5.702;2023-04-07T02:01:10;31.80;;;18.98;;
43150;SDS011;28755;51.478;5.702;2023-04-07T02:03:49;27.98;;;18.10;;
43150;SDS011;28755;51.478;5.702;2023-04-07T02:06:21;35.25;;;18.55;;
43150;SDS011;28755;51.478;5.702;2023-04-07T02:08:52;35.25;;;20.58;;
43150;SDS011;28755;51.478;5.702;2023-04-07T02:11:23;30.70;;;20.60;;
43150;SDS011;28755;51.478;5.702;2023-04-07T02:13:51;36.85;;;19.65;;
43150;SDS011;28755;51.478;5.702;2023-04-07T02:16:18;35.70;;;18.83;;
43150;SDS011;28755;51.478;5.702;2023-04-07T02:18:45;37.45;;;18.67;;
43150;SDS011;28755;51.478;5.702;2023-04-07T02:21:12;32.03;;;17.80;;
43150;SDS011;28755;51.478;5.702;2023-04-07T02:23:40;27.13;;;16.88;;
43150;SDS011;28755;51.478;5.702;2023-04-07T02:26:05;29.70;;;17.48;;
43150;SDS011;28755;51.478;5.702;2023-04-07T02:28:31;26.27;;;16.50;;
43150;SDS011;28755;51.478;5.702;2023-04-07T02:30:57;24.15;;;15.15;;
43150;SDS011;28755;51.478;5.702;2023-04-07T02:33:22;31.15;;;15.25;;
43150;SDS011;28755;51.478;5.702;2023-04-07T02:35:48;23.77;;;15.15;;
43150;SDS011;28755;51.478;5.702;2023-04-07T02:38:13;27.45;;;14.27;;
43150;SDS011;28755;51.478;5.702;2023-04-07T02:40:39;28.00;;;12.85;;
43150;SDS011;28755;51.478;5.702;2023-04-07T02:43:05;18.33;;;10.90;;
43150;SDS011;28755;51.478;5.702;2023-04-07T02:45:30;12.55;;;9.18;;
43150;SDS011;28755;51.478;5.702;2023-04-07T02:47:56;13.90;;;8.70;;
43150;SDS011;28755;51.478;5.702;2023-04-07T02:50:21;13.20;;;8.30;;
43150;SDS011;28755;51.478;5.702;2023-04-07T02:52:47;18.08;;;9.13;;
43150;SDS011;28755;51.478;5.702;2023-04-07T02:55:13;14.73;;;8.98;;
43150;SDS011;28755;51.478;5.702;2023-04-07T02:57:38;15.35;;;9.68;;
43150;SDS011;28755;51.478;5.702;2023-04-07T03:00:04;16.77;;;9.35;;
43150;SDS011;28755;51.478;5.702;2023-04-07T03:02:30;14.52;;;9.00;;
43150;SDS011;28755;51.478;5.702;2023-04-07T03:04:56;18.45;;;9.05;;
43150;SDS011;28755;51.478;5.702;2023-04-07T03:07:21;14.70;;;8.77;;
43150;SDS011;28755;51.478;5.702;2023-04-07T03:09:47;23.25;;;9.40;;
43150;SDS011;28755;51.478;5.702;2023-04-07T03:12:12;16.55;;;8.35;;
43150;SDS011;28755;51.478;5.702;2023-04-07T03:14:38;14.05;;;9.00;;
43150;SDS011;28755;51.478;5.702;2023-04-07T03:17:03;13.68;;;8.68;;
43150;SDS011;28755;51.478;5.702;2023-04-07T03:19:29;16.92;;;8.70;;
43150;SDS011;28755;51.478;5.702;2023-04-07T03:21:55;19.73;;;9.02;;
43150;SDS011;28755;51.478;5.702;2023-04-07T03:24:20;17.63;;;8.93;;
43150;SDS011;28755;51.478;5.702;2023-04-07T03:26:46;23.98;;;9.75;;
43150;SDS011;28755;51.478;5.702;2023-04-07T03:29:12;16.20;;;8.73;;
43150;SDS011;28755;51.478;5.702;2023-04-07T03:31:37;19.17;;;9.35;;
43150;SDS011;28755;51.478;5.702;2023-04-07T03:34:03;14.40;;;8.63;;
43150;SDS011;28755;51.478;5.702;2023-04-07T03:36:29;16.08;;;9.40;;
43150;SDS011;28755;51.478;5.702;2023-04-07T03:38:55;15.85;;;8.65;;
43150;SDS011;28755;51.478;5.702;2023-04-07T03:41:21;16.05;;;9.05;;
43150;SDS011;28755;51.478;5.702;2023-04-07T03:43:47;17.55;;;8.93;;
43150;SDS011;28755;51.478;5.702;2023-04-07T03:46:13;17.95;;;8.95;;
43150;SDS011;28755;51.478;5.702;2023-04-07T03:48:38;19.27;;;8.85;;
43150;SDS011;28755;51.478;5.702;2023-04-07T03:51:04;17.38;;;9.43;;
43150;SDS011;28755;51.478;5.702;2023-04-07T03:53:30;20.25;;;9.45;;
43150;SDS011;28755;51.478;5.702;2023-04-07T03:55:56;16.92;;;9.05;;
43150;SDS011;28755;51.478;5.702;2023-04-07T03:58:21;20.88;;;9.05;;
43150;SDS011;28755;51.478;5.702;2023-04-07T04:00:47;17.58;;;8.65;;
43150;SDS011;28755;51.478;5.702;2023-04-07T04:03:13;17.35;;;8.80;;
43150;SDS011;28755;51.478;5.702;2023-04-07T04:05:38;13.90;;;8.48;;
43150;SDS011;28755;51.478;5.702;2023-04-07T04:08:04;17.25;;;8.55;;
43150;SDS011;28755;51.478;5.702;2023-04-07T04:10:30;17.88;;;9.30;;
43150;SDS011;28755;51.478;5.702;2023-04-07T04:12:56;18.33;;;9.07;;
43150;SDS011;28755;51.478;5.702;2023-04-07T04:15:24;19.58;;;9.05;;
43150;SDS011;28755;51.478;5.702;2023-04-07T04:17:50;23.65;;;9.93;;
43150;SDS011;28755;51.478;5.702;2023-04-07T04:20:16;14.40;;;8.80;;
43150;SDS011;28755;51.478;5.702;2023-04-07T04:22:42;17.70;;;9.18;;
43150;SDS011;28755;51.478;5.702;2023-04-07T04:25:07;20.42;;;9.32;;
43150;SDS011;28755;51.478;5.702;2023-04-07T04:27:33;19.48;;;9.10;;
43150;SDS011;28755;51.478;5.702;2023-04-07T04:29:59;16.48;;;9.30;;
43150;SDS011;28755;51.478;5.702;2023-04-07T04:32:24;17.15;;;9.20;;
43150;SDS011;28755;51.478;5.702;2023-04-07T04:34:50;24.27;;;9.63;;
43150;SDS011;28755;51.478;5.702;2023-04-07T04:37:16;19.08;;;9.23;;
43150;SDS011;28755;51.478;5.702;2023-04-07T04:39:41;20.90;;;9.63;;
43150;SDS011;28755;51.478;5.702;2023-04-07T04:42:07;20.85;;;9.70;;
43150;SDS011;28755;51.478;5.702;2023-04-07T04:44:32;20.23;;;9.82;;
43150;SDS011;28755;51.478;5.702;2023-04-07T04:46:58;20.35;;;9.48;;
43150;SDS011;28755;51.478;5.702;2023-04-07T04:49:23;21.77;;;10.07;;
43150;SDS011;28755;51.478;5.702;2023-04-07T04:51:49;25.10;;;10.23;;
43150;SDS011;28755;51.478;5.702;2023-04-07T04:54:15;25.83;;;10.70;;
43150;SDS011;28755;51.478;5.702;2023-04-07T04:56:42;21.90;;;11.88;;
43150;SDS011;28755;51.478;5.702;2023-04-07T04:59:08;21.80;;;11.98;;
43150;SDS011;28755;51.478;5.702;2023-04-07T05:01:33;23.83;;;13.10;;
43150;SDS011;28755;51.478;5.702;2023-04-07T05:03:59;28.65;;;12.98;;
43150;SDS011;28755;51.478;5.702;2023-04-07T05:06:25;29.95;;;14.35;;
43150;SDS011;28755;51.478;5.702;2023-04-07T05:08:51;30.85;;;14.38;;
43150;SDS011;28755;51.478;5.702;2023-04-07T05:11:17;29.40;;;15.50;;
43150;SDS011;28755;51.478;5.702;2023-04-07T05:13:43;33.22;;;15.80;;
43150;SDS011;28755;51.478;5.702;2023-04-07T05:16:08;40.63;;;15.77;;
43150;SDS011;28755;51.478;5.702;2023-04-07T05:18:34;30.58;;;16.15;;
43150;SDS011;28755;51.478;5.702;2023-04-07T05:20:59;30.38;;;15.73;;
43150;SDS011;28755;51.478;5.702;2023-04-07T05:23:26;35.92;;;16.70;;
43150;SDS011;28755;51.478;5.702;2023-04-07T05:25:51;33.65;;;16.92;;
43150;SDS011;28755;51.478;5.702;2023-04-07T05:28:17;35.20;;;17.75;;
43150;SDS011;28755;51.478;5.702;2023-04-07T05:30:43;32.25;;;16.95;;
43150;SDS011;28755;51.478;5.702;2023-04-07T05:33:08;40.45;;;16.65;;
43150;SDS011;28755;51.478;5.702;2023-04-07T05:35:34;33.83;;;16.45;;
43150;SDS011;28755;51.478;5.702;2023-04-07T05:38:00;33.20;;;16.27;;
43150;SDS011;28755;51.478;5.702;2023-04-07T05:40:26;37.03;;;16.70;;
43150;SDS011;28755;51.478;5.702;2023-04-07T05:42:52;34.67;;;15.98;;
43150;SDS011;28755;51.478;5.702;2023-04-07T05:45:17;31.98;;;16.58;;
43150;SDS011;28755;51.478;5.702;2023-04-07T05:47:43;34.00;;;16.55;;
43150;SDS011;28755;51.478;5.702;2023-04-07T05:50:11;34.47;;;16.85;;
43150;SDS011;28755;51.478;5.702;2023-04-07T05:52:38;33.75;;;15.82;;
43150;SDS011;28755;51.478;5.702;2023-04-07T05:55:03;31.17;;;15.85;;
43150;SDS011;28755;51.478;5.702;2023-04-07T05:57:30;38.85;;;16.27;;
43150;SDS011;28755;51.478;5.702;2023-04-07T05:59:57;39.45;;;15.55;;
43150;SDS011;28755;51.478;5.702;2023-04-07T06:02:22;34.65;;;15.63;;
43150;SDS011;28755;51.478;5.702;2023-04-07T06:04:48;33.97;;;16.02;;
43150;SDS011;28755;51.478;5.702;2023-04-07T06:07:13;32.42;;;14.95;;
43150;SDS011;28755;51.478;5.702;2023-04-07T06:09:39;29.63;;;15.10;;
43150;SDS011;28755;51.478;5.702;2023-04-07T06:12:06;33.40;;;14.70;;
43150;SDS011;28755;51.478;5.702;2023-04-07T06:14:33;35.88;;;15.75;;
43150;SDS011;28755;51.478;5.702;2023-04-07T06:16:59;33.65;;;15.40;;
43150;SDS011;28755;51.478;5.702;2023-04-07T06:19:25;38.45;;;16.02;;
43150;SDS011;28755;51.478;5.702;2023-04-07T06:21:51;33.28;;;15.48;;
43150;SDS011;28755;51.478;5.702;2023-04-07T06:24:17;35.00;;;15.38;;
43150;SDS011;28755;51.478;5.702;2023-04-07T06:26:43;32.90;;;15.10;;
43150;SDS011;28755;51.478;5.702;2023-04-07T06:29:09;30.50;;;14.93;;
43150;SDS011;28755;51.478;5.702;2023-04-07T06:31:34;35.40;;;15.38;;
43150;SDS011;28755;51.478;5.702;2023-04-07T06:34:00;30.95;;;14.95;;
43150;SDS011;28755;51.478;5.702;2023-04-07T06:36:26;33.00;;;16.05;;
43150;SDS011;28755;51.478;5.702;2023-04-07T06:38:53;42.20;;;15.48;;
43150;SDS011;28755;51.478;5.702;2023-04-07T06:41:18;40.55;;;16.15;;
43150;SDS011;28755;51.478;5.702;2023-04-07T06:43:47;40.60;;;16.15;;
43150;SDS011;28755;51.478;5.702;2023-04-07T06:46:15;30.30;;;15.88;;
43150;SDS011;28755;51.478;5.702;2023-04-07T06:48:41;33.72;;;16.08;;
43150;SDS011;28755;51.478;5.702;2023-04-07T06:51:06;35.67;;;16.00;;
43150;SDS011;28755;51.478;5.702;2023-04-07T06:53:32;32.33;;;15.32;;
43150;SDS011;28755;51.478;5.702;2023-04-07T06:56:01;38.15;;;16.52;;
43150;SDS011;28755;51.478;5.702;2023-04-07T06:58:36;31.83;;;15.95;;
43150;SDS011;28755;51.478;5.702;2023-04-07T07:01:02;30.58;;;15.27;;
43150;SDS011;28755;51.478;5.702;2023-04-07T07:03:29;29.58;;;15.68;;
43150;SDS011;28755;51.478;5.702;2023-04-07T07:05:56;27.52;;;14.70;;
43150;SDS011;28755;51.478;5.702;2023-04-07T07:08:25;34.15;;;15.75;;
43150;SDS011;28755;51.478;5.702;2023-04-07T07:10:51;33.97;;;16.00;;
43150;SDS011;28755;51.478;5.702;2023-04-07T07:13:17;29.75;;;15.27;;
43150;SDS011;28755;51.478;5.702;2023-04-07T07:15:44;31.95;;;15.55;;
43150;SDS011;28755;51.478;5.702;2023-04-07T07:18:10;31.10;;;15.95;;
43150;SDS011;28755;51.478;5.702;2023-04-07T07:20:36;32.85;;;16.48;;
43150;SDS011;28755;51.478;5.702;2023-04-07T07:23:01;37.53;;;15.15;;
43150;SDS011;28755;51.478;5.702;2023-04-07T07:25:27;28.55;;;16.65;;
43150;SDS011;28755;51.478;5.702;2023-04-07T07:27:53;29.67;;;16.38;;
43150;SDS011;28755;51.478;5.702;2023-04-07T07:30:19;31.67;;;15.88;;
43150;SDS011;28755;51.478;5.702;2023-04-07T07:32:46;29.77;;;15.70;;
43150;SDS011;28755;51.478;5.702;2023-04-07T07:35:12;26.42;;;14.88;;
43150;SDS011;28755;51.478;5.702;2023-04-07T07:37:38;27.45;;;14.82;;
43150;SDS011;28755;51.478;5.702;2023-04-07T07:40:04;30.83;;;16.02;;
43150;SDS011;28755;51.478;5.702;2023-04-07T07:42:30;31.85;;;15.65;;
43150;SDS011;28755;51.478;5.702;2023-04-07T07:44:56;35.20;;;15.93;;
43150;SDS011;28755;51.478;5.702;2023-04-07T07:47:22;35.05;;;15.52;;
43150;SDS011;28755;51.478;5.702;2023-04-07T07:49:48;33.15;;;15.38;;
43150;SDS011;28755;51.478;5.702;2023-04-07T07:52:13;31.25;;;16.27;;
43150;SDS011;28755;51.478;5.702;2023-04-07T07:54:39;39.75;;;15.23;;
43150;SDS011;28755;51.478;5.702;2023-04-07T07:57:05;26.00;;;14.32;;
43150;SDS011;28755;51.478;5.702;2023-04-07T07:59:31;32.72;;;15.57;;
43150;SDS011;28755;51.478;5.702;2023-04-07T08:01:57;32.95;;;15.60;;
43150;SDS011;28755;51.478;5.702;2023-04-07T08:04:23;28.65;;;15.20;;
43150;SDS011;28755;51.478;5.702;2023-04-07T08:06:49;27.10;;;15.32;;
43150;SDS011;28755;51.478;5.702;2023-04-07T08:09:15;33.42;;;15.73;;
43150;SDS011;28755;51.478;5.702;2023-04-07T08:11:42;29.27;;;15.73;;
43150;SDS011;28755;51.478;5.702;2023-04-07T08:14:08;36.70;;;17.70;;
43150;SDS011;28755;51.478;5.702;2023-04-07T08:16:33;31.15;;;16.05;;
43150;SDS011;28755;51.478;5.702;2023-04-07T08:18:59;36.45;;;16.23;;
43150;SDS011;28755;51.478;5.702;2023-04-07T08:21:24;31.23;;;15.77;;
43150;SDS011;28755;51.478;5.702;2023-04-07T08:23:52;32.75;;;15.75;;
43150;SDS011;28755;51.478;5.702;2023-04-07T08:26:18;29.02;;;14.60;;
43150;SDS011;28755;51.478;5.702;2023-04-07T08:28:44;32.50;;;15.55;;
43150;SDS011;28755;51.478;5.702;2023-04-07T08:31:09;31.65;;;16.35;;
43150;SDS011;28755;51.478;5.702;2023-04-07T08:33:35;40.15;;;24.45;;
43150;SDS011;28755;51.478;5.702;2023-04-07T08:36:00;28.50;;;15.05;;
43150;SDS011;28755;51.478;5.702;2023-04-07T08:38:26;28.52;;;14.63;;
43150;SDS011;28755;51.478;5.702;2023-04-07T08:40:53;60.05;;;36.03;;
43150;SDS011;28755;51.478;5.702;2023-04-07T08:43:23;30.52;;;14.80;;
43150;SDS011;28755;51.478;5.702;2023-04-07T08:45:51;17.65;;;10.40;;
43150;SDS011;28755;51.478;5.702;2023-04-07T08:48:19;21.33;;;12.15;;
43150;SDS011;28755;51.478;5.702;2023-04-07T08:50:47;22.13;;;13.40;;
43150;SDS011;28755;51.478;5.702;2023-04-07T08:53:17;25.65;;;16.35;;
43150;SDS011;28755;51.478;5.702;2023-04-07T08:55:47;20.85;;;11.93;;
43150;SDS011;28755;51.478;5.702;2023-04-07T08:58:13;24.02;;;15.55;;
43150;SDS011;28755;51.478;5.702;2023-04-07T09:00:39;23.52;;;14.25;;
43150;SDS011;28755;51.478;5.702;2023-04-07T09:03:09;13.60;;;7.20;;
43150;SDS011;28755;51.478;5.702;2023-04-07T09:05:35;11.18;;;5.93;;
43150;SDS011;28755;51.478;5.702;2023-04-07T09:08:01;12.07;;;5.18;;
43150;SDS011;28755;51.478;5.702;2023-04-07T09:10:27;11.25;;;6.00;;
43150;SDS011;28755;51.478;5.702;2023-04-07T09:12:53;13.27;;;6.03;;
43150;SDS011;28755;51.478;5.702;2023-04-07T09:15:18;11.50;;;5.78;;
43150;SDS011;28755;51.478;5.702;2023-04-07T09:17:45;16.60;;;5.88;;
43150;SDS011;28755;51.478;5.702;2023-04-07T09:20:11;8.77;;;4.40;;
43150;SDS011;28755;51.478;5.702;2023-04-07T09:22:37;11.55;;;4.57;;
43150;SDS011;28755;51.478;5.702;2023-04-07T09:25:21;9.20;;;4.25;;
43150;SDS011;28755;51.478;5.702;2023-04-07T09:28:04;12.63;;;4.57;;
43150;SDS011;28755;51.478;5.702;2023-04-07T09:30:30;10.32;;;5.03;;
43150;SDS011;28755;51.478;5.702;2023-04-07T09:32:57;13.88;;;4.97;;
43150;SDS011;28755;51.478;5.702;2023-04-07T09:35:23;15.32;;;5.03;;
43150;SDS011;28755;51.478;5.702;2023-04-07T09:38:01;14.15;;;4.80;;
43150;SDS011;28755;51.478;5.702;2023-04-07T09:40:31;13.25;;;4.97;;
43150;SDS011;28755;51.478;5.702;2023-04-07T09:42:57;13.93;;;5.07;;
43150;SDS011;28755;51.478;5.702;2023-04-07T09:45:27;12.05;;;5.30;;
43150;SDS011;28755;51.478;5.702;2023-04-07T09:47:53;10.82;;;4.88;;
43150;SDS011;28755;51.478;5.702;2023-04-07T09:50:31;7.18;;;4.43;;
43150;SDS011;28755;51.478;5.702;2023-04-07T09:52:59;13.05;;;4.60;;
43150;SDS011;28755;51.478;5.702;2023-04-07T09:55:25;13.45;;;4.75;;
43150;SDS011;28755;51.478;5.702;2023-04-07T09:57:53;7.30;;;4.03;;
43150;SDS011;28755;51.478;5.702;2023-04-07T10:00:22;8.73;;;3.63;;
43150;SDS011;28755;51.478;5.702;2023-04-07T10:02:48;12.23;;;3.50;;
43150;SDS011;28755;51.478;5.702;2023-04-07T10:05:15;6.85;;;3.40;;
43150;SDS011;28755;51.478;5.702;2023-04-07T10:07:41;12.43;;;3.67;;
43150;SDS011;28755;51.478;5.702;2023-04-07T10:10:07;9.88;;;3.85;;
43150;SDS011;28755;51.478;5.702;2023-04-07T10:12:33;7.32;;;3.13;;
43150;SDS011;28755;51.478;5.702;2023-04-07T10:15:01;10.98;;;3.60;;
43150;SDS011;28755;51.478;5.702;2023-04-07T10:17:28;18.05;;;5.07;;
43150;SDS011;28755;51.478;5.702;2023-04-07T10:19:56;7.65;;;3.50;;
43150;SDS011;28755;51.478;5.702;2023-04-07T10:22:22;10.27;;;3.72;;
43150;SDS011;28755;51.478;5.702;2023-04-07T10:27:20;8.63;;;3.47;;
43150;SDS011;28755;51.478;5.702;2023-04-07T10:29:51;8.52;;;3.28;;
43150;SDS011;28755;51.478;5.702;2023-04-07T10:32:18;10.95;;;3.75;;
43150;SDS011;28755;51.478;5.702;2023-04-07T10:37:17;10.80;;;3.70;;
43150;SDS011;28755;51.478;5.702;2023-04-07T10:39:45;10.32;;;3.60;;
43150;SDS011;28755;51.478;5.702;2023-04-07T10:47:28;12.90;;;3.80;;
43150;SDS011;28755;51.478;5.702;2023-04-07T10:52:45;12.05;;;4.85;;
43150;SDS011;28755;51.478;5.702;2023-04-07T10:55:27;14.02;;;3.67;;
43150;SDS011;28755;51.478;5.702;2023-04-07T11:00:37;10.98;;;4.07;;
43150;SDS011;28755;51.478;5.702;2023-04-07T11:03:12;78.05;;;10.45;;
43150;SDS011;28755;51.478;5.702;2023-04-07T11:05:38;16.15;;;3.88;;
43150;SDS011;28755;51.478;5.702;2023-04-07T11:08:05;12.98;;;4.05;;
43150;SDS011;28755;51.478;5.702;2023-04-07T11:10:31;15.73;;;4.70;;
43150;SDS011;28755;51.478;5.702;2023-04-07T11:13:06;25.75;;;6.07;;
43150;SDS011;28755;51.478;5.702;2023-04-07T11:15:36;22.63;;;5.00;;
43150;SDS011;28755;51.478;5.702;2023-04-07T11:18:12;19.00;;;4.55;;
43150;SDS011;28755;51.478;5.702;2023-04-07T11:20:46;27.25;;;5.70;;
43150;SDS011;28755;51.478;5.702;2023-04-07T11:23:14;23.13;;;4.57;;
43150;SDS011;28755;51.478;5.702;2023-04-07T11:25:44;32.30;;;5.88;;
43150;SDS011;28755;51.478;5.702;2023-04-07T11:28:11;18.40;;;4.10;;
43150;SDS011;28755;51.478;5.702;2023-04-07T11:30:38;11.85;;;4.22;;
43150;SDS011;28755;51.478;5.702;2023-04-07T11:33:08;13.38;;;4.00;;
43150;SDS011;28755;51.478;5.702;2023-04-07T11:35:38;11.35;;;3.63;;
43150;SDS011;28755;51.478;5.702;2023-04-07T11:38:12;10.07;;;4.15;;
43150;SDS011;28755;51.478;5.702;2023-04-07T11:40:37;7.70;;;3.70;;
43150;SDS011;28755;51.478;5.702;2023-04-07T11:43:16;11.30;;;3.42;;
43150;SDS011;28755;51.478;5.702;2023-04-07T11:45:42;7.40;;;3.00;;
43150;SDS011;28755;51.478;5.702;2023-04-07T11:50:54;10.50;;;3.10;;
43150;SDS011;28755;51.478;5.702;2023-04-07T11:53:26;12.00;;;3.50;;
43150;SDS011;28755;51.478;5.702;2023-04-07T11:55:58;15.85;;;3.78;;
43150;SDS011;28755;51.478;5.702;2023-04-07T11:58:34;15.93;;;3.65;;
43150;SDS011;28755;51.478;5.702;2023-04-07T12:01:01;12.07;;;3.40;;
43150;SDS011;28755;51.478;5.702;2023-04-07T12:03:31;14.57;;;4.03;;
43150;SDS011;28755;51.478;5.702;2023-04-07T12:06:00;20.75;;;4.20;;
43150;SDS011;28755;51.478;5.702;2023-04-07T12:08:36;13.13;;;3.78;;
43150;SDS011;28755;51.478;5.702;2023-04-07T12:11:06;14.70;;;3.53;;
43150;SDS011;28755;51.478;5.702;2023-04-07T12:13:33;15.85;;;3.90;;
43150;SDS011;28755;51.478;5.702;2023-04-07T12:15:59;13.50;;;3.40;;
43150;SDS011;28755;51.478;5.702;2023-04-07T12:18:25;8.57;;;2.90;;
43150;SDS011;28755;51.478;5.702;2023-04-07T12:20:52;18.02;;;3.25;;
43150;SDS011;28755;51.478;5.702;2023-04-07T12:23:17;9.05;;;2.63;;
43150;SDS011;28755;51.478;5.702;2023-04-07T12:25:43;9.50;;;3.40;;
43150;SDS011;28755;51.478;5.702;2023-04-07T12:28:08;15.85;;;3.35;;
43150;SDS011;28755;51.478;5.702;2023-04-07T12:30:34;8.35;;;2.97;;
43150;SDS011;28755;51.478;5.702;2023-04-07T12:33:00;9.35;;;2.85;;
43150;SDS011;28755;51.478;5.702;2023-04-07T12:35:27;12.20;;;2.78;;
43150;SDS011;28755;51.478;5.702;2023-04-07T12:37:54;10.25;;;2.75;;
43150;SDS011;28755;51.478;5.702;2023-04-07T12:40:20;8.98;;;2.58;;
43150;SDS011;28755;51.478;5.702;2023-04-07T12:42:46;9.20;;;2.42;;
43150;SDS011;28755;51.478;5.702;2023-04-07T12:45:12;13.50;;;3.25;;
43150;SDS011;28755;51.478;5.702;2023-04-07T12:47:38;12.73;;;2.88;;
43150;SDS011;28755;51.478;5.702;2023-04-07T12:50:03;13.27;;;3.53;;
43150;SDS011;28755;51.478;5.702;2023-04-07T12:52:29;8.60;;;2.33;;
43150;SDS011;28755;51.478;5.702;2023-04-07T12:54:56;12.40;;;2.63;;
43150;SDS011;28755;51.478;5.702;2023-04-07T12:57:22;8.80;;;2.53;;
43150;SDS011;28755;51.478;5.702;2023-04-07T12:59:48;9.07;;;2.30;;
43150;SDS011;28755;51.478;5.702;2023-04-07T13:02:13;10.60;;;2.75;;
43150;SDS011;28755;51.478;5.702;2023-04-07T13:04:41;12.52;;;3.20;;
43150;SDS011;28755;51.478;5.702;2023-04-07T13:07:10;13.02;;;2.95;;
43150;SDS011;28755;51.478;5.702;2023-04-07T13:09:36;10.48;;;2.85;;
43150;SDS011;28755;51.478;5.702;2023-04-07T13:12:03;12.70;;;2.97;;
43150;SDS011;28755;51.478;5.702;2023-04-07T13:14:28;15.15;;;3.17;;
43150;SDS011;28755;51.478;5.702;2023-04-07T13:16:54;14.40;;;3.53;;
43150;SDS011;28755;51.478;5.702;2023-04-07T13:19:20;14.05;;;3.20;;
43150;SDS011;28755;51.478;5.702;2023-04-07T13:21:45;12.82;;;3.03;;
43150;SDS011;28755;51.478;5.702;2023-04-07T13:24:11;16.02;;;3.35;;
43150;SDS011;28755;51.478;5.702;2023-04-07T13:26:37;16.80;;;3.58;;
43150;SDS011;28755;51.478;5.702;2023-04-07T13:29:02;15.35;;;4.28;;
43150;SDS011;28755;51.478;5.702;2023-04-07T13:31:28;19.08;;;3.83;;
43150;SDS011;28755;51.478;5.702;2023-04-07T13:33:54;13.48;;;3.92;;
43150;SDS011;28755;51.478;5.702;2023-04-07T13:36:21;12.15;;;3.20;;
43150;SDS011;28755;51.478;5.702;2023-04-07T13:38:46;14.85;;;3.70;;
43150;SDS011;28755;51.478;5.702;2023-04-07T13:41:12;15.45;;;3.47;;
43150;SDS011;28755;51.478;5.702;2023-04-07T13:43:38;13.57;;;3.90;;
43150;SDS011;28755;51.478;5.702;2023-04-07T13:46:03;14.65;;;3.38;;
43150;SDS011;28755;51.478;5.702;2023-04-07T13:48:29;14.68;;;3.40;;
43150;SDS011;28755;51.478;5.702;2023-04-07T13:50:55;12.18;;;3.40;;
43150;SDS011;28755;51.478;5.702;2023-04-07T13:53:21;12.85;;;3.22;;
43150;SDS011;28755;51.478;5.702;2023-04-07T13:55:48;16.30;;;3.80;;
43150;SDS011;28755;51.478;5.702;2023-04-07T13:58:14;18.95;;;4.40;;
43150;SDS011;28755;51.478;5.702;2023-04-07T14:00:39;19.27;;;3.67;;
43150;SDS011;28755;51.478;5.702;2023-04-07T14:03:05;15.82;;;3.38;;
43150;SDS011;28755;51.478;5.702;2023-04-07T14:05:31;16.13;;;3.92;;
43150;SDS011;28755;51.478;5.702;2023-04-07T14:07:57;13.57;;;3.78;;
43150;SDS011;28755;51.478;5.702;2023-04-07T14:10:22;16.88;;;3.97;;
43150;SDS011;28755;51.478;5.702;2023-04-07T14:12:48;15.52;;;3.80;;
43150;SDS011;28755;51.478;5.702;2023-04-07T14:15:13;16.42;;;3.63;;
43150;SDS011;28755;51.478;5.702;2023-04-07T14:17:39;17.35;;;3.95;;
43150;SDS011;28755;51.478;5.702;2023-04-07T14:20:05;16.60;;;3.92;;
43150;SDS011;28755;51.478;5.702;2023-04-07T14:22:31;14.35;;;3.75;;
43150;SDS011;28755;51.478;5.702;2023-04-07T14:24:56;15.55;;;4.25;;
43150;SDS011;28755;51.478;5.702;2023-04-07T14:27:22;19.45;;;4.25;;
43150;SDS011;28755;51.478;5.702;2023-04-07T14:29:47;13.60;;;4.05;;
43150;SDS011;28755;51.478;5.702;2023-04-07T14:32:14;14.68;;;4.13;;
43150;SDS011;28755;51.478;5.702;2023-04-07T14:34:40;14.95;;;3.80;;
43150;SDS011;28755;51.478;5.702;2023-04-07T14:37:05;16.00;;;3.95;;
43150;SDS011;28755;51.478;5.702;2023-04-07T14:39:31;20.23;;;3.80;;
43150;SDS011;28755;51.478;5.702;2023-04-07T14:41:57;14.40;;;4.07;;
43150;SDS011;28755;51.478;5.702;2023-04-07T14:44:22;12.02;;;3.42;;
43150;SDS011;28755;51.478;5.702;2023-04-07T14:46:48;12.90;;;3.30;;
43150;SDS011;28755;51.478;5.702;2023-04-07T14:49:14;16.92;;;4.15;;
43150;SDS011;28755;51.478;5.702;2023-04-07T14:51:39;17.38;;;4.60;;
43150;SDS011;28755;51.478;5.702;2023-04-07T14:54:05;19.10;;;4.15;;
43150;SDS011;28755;51.478;5.702;2023-04-07T14:56:31;15.40;;;3.60;;